createdAt,value
2022-09-26T00:00:47.687Z,7.89
2022-09-26T00:01:47.748Z,7.86
2022-09-26T00:02:47.811Z,7.87
2022-09-26T00:03:47.619Z,7.86
2022-09-26T00:04:47.606Z,7.86
2022-09-26T00:05:47.575Z,7.89
2022-09-26T00:06:47.570Z,7.89
2022-09-26T00:07:47.555Z,7.90
2022-09-26T00:08:47.537Z,7.95
2022-09-26T00:09:47.550Z,7.86
2022-09-26T00:10:47.520Z,7.86
2022-09-26T00:11:47.505Z,7.90
2022-09-26T00:12:47.497Z,7.85
2022-09-26T00:13:47.484Z,7.92
2022-09-26T00:14:47.469Z,7.83
2022-09-26T00:15:47.483Z,7.80
2022-09-26T00:16:47.536Z,7.80
2022-09-26T00:17:47.440Z,7.77
2022-09-26T00:18:47.450Z,7.85
2022-09-26T00:19:47.417Z,7.64
2022-09-26T00:20:47.426Z,7.68
2022-09-26T00:21:47.392Z,7.72
2022-09-26T00:22:47.379Z,7.69
2022-09-26T00:23:47.381Z,7.67
2022-09-26T00:24:47.377Z,7.67
2022-09-26T00:25:47.372Z,7.71
2022-09-26T00:26:47.336Z,7.68
2022-09-26T00:27:47.335Z,7.67
2022-09-26T00:28:47.312Z,7.67
2022-09-26T00:29:47.298Z,7.60
2022-09-26T00:30:47.379Z,7.72
2022-09-26T00:31:47.300Z,7.69
2022-09-26T00:32:47.271Z,7.67
2022-09-26T00:33:47.275Z,7.57
2022-09-26T00:34:47.263Z,7.68
2022-09-26T00:35:47.233Z,7.68
2022-09-26T00:36:47.241Z,7.69
2022-09-26T00:37:47.210Z,7.60
2022-09-26T00:38:47.199Z,7.69
2022-09-26T00:39:47.191Z,7.57
2022-09-26T00:40:47.257Z,7.67
2022-09-26T00:41:47.185Z,7.63
2022-09-26T00:42:47.152Z,7.64
2022-09-26T00:43:47.142Z,7.61
2022-09-26T00:44:47.156Z,7.64
2022-09-26T00:45:47.186Z,7.55
2022-09-26T00:46:47.115Z,7.67
2022-09-26T00:47:47.106Z,7.52
2022-09-26T00:48:47.090Z,7.52
2022-09-26T00:49:47.099Z,7.63
2022-09-26T00:50:47.084Z,7.46
2022-09-26T00:51:47.062Z,7.61
2022-09-26T00:52:47.045Z,7.60
2022-09-26T00:53:47.033Z,7.69
2022-09-26T00:54:47.044Z,7.68
2022-09-26T00:55:47.015Z,7.61
2022-09-26T00:56:47.004Z,7.57
2022-09-26T00:57:46.993Z,7.60
2022-09-26T00:58:46.977Z,7.61
2022-09-26T00:59:46.966Z,7.55
2022-09-26T01:00:46.978Z,7.60
2022-09-26T01:01:47.101Z,7.48
2022-09-26T01:02:47.128Z,7.57
2022-09-26T01:03:46.923Z,7.61
2022-09-26T01:04:46.911Z,7.63
2022-09-26T01:05:46.921Z,7.58
2022-09-26T01:06:46.987Z,7.60
2022-09-26T01:07:46.877Z,7.58
2022-09-26T01:08:46.866Z,7.50
2022-09-26T01:09:46.857Z,7.50
2022-09-26T01:10:47.052Z,7.49
2022-09-26T01:11:46.861Z,7.50
2022-09-26T01:12:46.821Z,7.49
2022-09-26T01:13:46.811Z,7.52
2022-09-26T01:14:46.816Z,7.61
2022-09-26T01:15:46.810Z,7.58
2022-09-26T01:16:46.858Z,7.57
2022-09-26T01:17:46.765Z,7.48
2022-09-26T01:18:46.755Z,7.63
2022-09-26T01:19:47.091Z,7.64
2022-09-26T01:20:46.754Z,7.45
2022-09-26T01:21:46.719Z,7.58
2022-09-26T01:22:46.726Z,7.58
2022-09-26T01:23:46.701Z,7.55
2022-09-26T01:24:46.694Z,7.49
2022-09-26T01:25:46.693Z,7.60
2022-09-26T01:26:46.664Z,7.58
2022-09-26T01:27:46.653Z,7.60
2022-09-26T01:28:46.641Z,7.58
2022-09-26T01:29:46.745Z,7.53
2022-09-26T01:30:46.718Z,7.60
2022-09-26T01:31:46.608Z,7.49
2022-09-26T01:32:46.594Z,7.61
2022-09-26T01:33:46.585Z,7.43
2022-09-26T01:34:46.597Z,7.48
2022-09-26T01:35:46.565Z,7.61
2022-09-26T01:36:46.582Z,7.50
2022-09-26T01:37:46.538Z,7.52
2022-09-26T01:38:46.570Z,7.48
2022-09-26T01:39:46.520Z,7.52
2022-09-26T01:40:46.512Z,7.48
2022-09-26T01:41:46.513Z,7.55
2022-09-26T01:42:46.516Z,7.48
2022-09-26T01:43:46.494Z,7.50
2022-09-26T01:44:46.459Z,7.50
2022-09-26T01:45:46.551Z,7.49
2022-09-26T01:46:46.449Z,7.48
2022-09-26T01:47:46.479Z,7.46
2022-09-26T01:48:46.452Z,7.39
2022-09-26T01:49:46.406Z,7.40
2022-09-26T01:50:46.391Z,7.45
2022-09-26T01:51:46.385Z,7.49
2022-09-26T01:52:46.371Z,7.48
2022-09-26T01:53:46.393Z,7.40
2022-09-26T01:54:46.368Z,7.34
2022-09-26T01:55:46.349Z,7.46
2022-09-26T01:56:46.370Z,7.48
2022-09-26T01:57:46.349Z,7.43
2022-09-26T01:58:46.372Z,7.46
2022-09-26T01:59:46.311Z,7.46
2022-09-26T02:00:46.382Z,7.45
2022-09-26T02:01:46.402Z,7.49
2022-09-26T02:02:46.309Z,7.52
2022-09-26T02:03:46.274Z,7.52
2022-09-26T02:04:46.244Z,7.55
2022-09-26T02:05:46.230Z,7.49
2022-09-26T02:06:46.235Z,7.49
2022-09-26T02:07:46.348Z,7.50
2022-09-26T02:08:46.222Z,7.48
2022-09-26T02:09:46.200Z,7.50
2022-09-26T02:10:46.190Z,7.52
2022-09-26T02:11:46.208Z,7.46
2022-09-26T02:12:46.171Z,7.43
2022-09-26T02:13:46.255Z,7.57
2022-09-26T02:14:46.131Z,7.63
2022-09-26T02:15:46.117Z,7.57
2022-09-26T02:16:46.234Z,7.57
2022-09-26T02:17:46.092Z,7.52
2022-09-26T02:18:46.100Z,7.64
2022-09-26T02:19:46.118Z,7.48
2022-09-26T02:20:46.056Z,7.49
2022-09-26T02:21:46.058Z,7.49
2022-09-26T02:22:46.042Z,7.46
2022-09-26T02:23:46.029Z,7.37
2022-09-26T02:24:46.037Z,7.43
2022-09-26T02:25:46.007Z,7.45
2022-09-26T02:26:46.006Z,7.37
2022-09-26T02:27:46.011Z,7.35
2022-09-26T02:28:45.967Z,7.42
2022-09-26T02:29:45.977Z,7.34
2022-09-26T02:30:45.966Z,7.39
2022-09-26T02:31:46.038Z,7.35
2022-09-26T02:32:45.926Z,7.43
2022-09-26T02:33:46.003Z,7.45
2022-09-26T02:34:45.984Z,7.45
2022-09-26T02:35:45.889Z,7.40
2022-09-26T02:36:45.880Z,7.45
2022-09-26T02:37:45.863Z,7.45
2022-09-26T02:38:45.854Z,7.53
2022-09-26T02:39:45.860Z,7.52
2022-09-26T02:40:45.931Z,7.60
2022-09-26T02:41:45.821Z,7.49
2022-09-26T02:42:45.853Z,7.45
2022-09-26T02:43:45.834Z,7.63
2022-09-26T02:44:45.787Z,7.68
2022-09-26T02:45:45.838Z,7.61
2022-09-26T02:46:45.761Z,7.68
2022-09-26T02:47:45.757Z,7.67
2022-09-26T02:48:45.763Z,7.63
2022-09-26T02:49:45.733Z,7.75
2022-09-26T02:50:45.719Z,7.80
2022-09-26T02:51:45.708Z,7.75
2022-09-26T02:52:45.696Z,7.74
2022-09-26T02:53:45.700Z,7.80
2022-09-26T02:54:45.671Z,7.77
2022-09-26T02:55:45.681Z,7.82
2022-09-26T02:56:45.652Z,7.80
2022-09-26T02:57:45.634Z,7.93
2022-09-26T02:58:45.649Z,7.86
2022-09-26T02:59:45.617Z,7.89
2022-09-26T03:00:45.689Z,7.90
2022-09-26T03:01:45.612Z,7.93
2022-09-26T03:02:45.605Z,8.01
2022-09-26T03:03:45.675Z,7.98
2022-09-26T03:04:45.644Z,8.00
2022-09-26T03:05:45.566Z,8.05
2022-09-26T03:06:45.535Z,8.10
2022-09-26T03:07:45.603Z,8.00
2022-09-26T03:08:45.530Z,8.12
2022-09-26T03:09:45.503Z,8.19
2022-09-26T03:10:45.500Z,8.15
2022-09-26T03:11:45.476Z,8.23
2022-09-26T03:12:45.626Z,8.16
2022-09-26T03:13:45.454Z,8.20
2022-09-26T03:14:45.542Z,8.16
2022-09-26T03:15:45.462Z,8.26
2022-09-26T03:16:45.536Z,8.20
2022-09-26T03:17:45.531Z,8.25
2022-09-26T03:18:45.452Z,8.33
2022-09-26T03:19:45.385Z,8.33
2022-09-26T03:20:45.376Z,8.26
2022-09-26T03:21:45.385Z,8.34
2022-09-26T03:22:45.545Z,8.36
2022-09-26T03:23:45.360Z,8.25
2022-09-26T03:24:45.330Z,8.36
2022-09-26T03:25:45.320Z,8.45
2022-09-26T03:26:45.306Z,8.38
2022-09-26T03:27:45.442Z,8.48
2022-09-26T03:28:45.561Z,8.47
2022-09-26T03:29:45.273Z,8.45
2022-09-26T03:30:45.284Z,8.44
2022-09-26T03:31:45.360Z,8.45
2022-09-26T03:32:45.239Z,8.47
2022-09-26T03:33:45.251Z,8.50
2022-09-26T03:34:45.216Z,8.50
2022-09-26T03:35:45.201Z,8.55
2022-09-26T03:36:45.214Z,8.55
2022-09-26T03:37:45.185Z,8.58
2022-09-26T03:38:45.225Z,8.59
2022-09-26T03:39:45.159Z,8.62
2022-09-26T03:40:45.323Z,8.62
2022-09-26T03:41:45.136Z,8.70
2022-09-26T03:42:45.145Z,8.63
2022-09-26T03:43:45.113Z,8.66
2022-09-26T03:44:45.111Z,8.70
2022-09-26T03:45:45.115Z,8.68
2022-09-26T03:46:45.095Z,8.80
2022-09-26T03:47:45.089Z,8.77
2022-09-26T03:48:45.061Z,8.83
2022-09-26T03:49:45.063Z,8.91
2022-09-26T03:50:45.036Z,8.89
2022-09-26T03:51:45.042Z,8.91
2022-09-26T03:52:45.012Z,8.98
2022-09-26T03:53:45.001Z,8.98
2022-09-26T03:54:44.989Z,8.92
2022-09-26T03:55:44.999Z,8.98
2022-09-26T03:56:44.967Z,8.94
2022-09-26T03:57:44.980Z,8.96
2022-09-26T03:58:44.944Z,9.05
2022-09-26T03:59:44.937Z,9.08
2022-09-26T04:00:45.028Z,9.04
2022-09-26T04:01:44.943Z,9.04
2022-09-26T04:02:45.023Z,9.01
2022-09-26T04:03:50.053Z,8.99
2022-09-26T04:04:45.880Z,9.05
2022-09-26T04:05:44.864Z,9.02
2022-09-26T04:06:44.939Z,9.08
2022-09-26T04:07:44.849Z,9.11
2022-09-26T04:08:44.853Z,9.11
2022-09-26T04:09:44.840Z,9.13
2022-09-26T04:10:44.810Z,9.14
2022-09-26T04:11:44.800Z,9.14
2022-09-26T04:12:44.816Z,9.13
2022-09-26T04:13:53.536Z,9.13
2022-09-26T04:14:45.765Z,9.17
2022-09-26T04:15:44.775Z,9.17
2022-09-26T04:16:44.818Z,9.11
2022-09-26T04:17:44.731Z,9.17
2022-09-26T04:18:44.740Z,9.14
2022-09-26T04:19:44.733Z,9.14
2022-09-26T04:20:44.699Z,9.14
2022-09-26T04:21:44.689Z,9.14
2022-09-26T04:22:44.682Z,9.17
2022-09-26T04:23:44.665Z,9.17
2022-09-26T04:24:44.770Z,9.14
2022-09-26T04:25:44.643Z,9.14
2022-09-26T04:26:44.632Z,9.13
2022-09-26T04:27:44.627Z,9.17
2022-09-26T04:28:44.640Z,9.23
2022-09-26T04:29:44.597Z,9.15
2022-09-26T04:30:44.589Z,9.21
2022-09-26T04:31:44.657Z,9.21
2022-09-26T04:32:44.566Z,9.28
2022-09-26T04:33:44.556Z,9.32
2022-09-26T04:34:44.656Z,9.32
2022-09-26T04:35:44.533Z,9.33
2022-09-26T04:36:44.523Z,9.31
2022-09-26T04:37:44.512Z,9.32
2022-09-26T04:38:44.505Z,9.29
2022-09-26T04:39:44.509Z,9.35
2022-09-26T04:40:44.526Z,9.46
2022-09-26T04:41:44.469Z,9.35
2022-09-26T04:42:44.478Z,9.43
2022-09-26T04:43:44.546Z,9.46
2022-09-26T04:44:44.466Z,9.39
2022-09-26T04:45:44.573Z,9.40
2022-09-26T04:46:44.441Z,9.39
2022-09-26T04:47:44.410Z,9.38
2022-09-26T04:48:44.415Z,9.33
2022-09-26T04:49:44.425Z,9.40
2022-09-26T04:50:44.387Z,9.43
2022-09-26T04:51:44.352Z,9.48
2022-09-26T04:52:44.389Z,9.47
2022-09-26T04:53:44.353Z,9.46
2022-09-26T04:54:44.323Z,9.50
2022-09-26T04:55:44.425Z,9.40
2022-09-26T04:56:44.303Z,9.56
2022-09-26T04:57:44.290Z,9.51
2022-09-26T04:58:44.300Z,9.36
2022-09-26T04:59:44.288Z,9.40
2022-09-26T05:00:44.273Z,9.43
2022-09-26T05:01:44.298Z,9.51
2022-09-26T05:02:44.273Z,9.50
2022-09-26T05:03:44.244Z,9.53
2022-09-26T05:04:44.213Z,9.53
2022-09-26T05:05:44.219Z,9.53
2022-09-26T05:06:44.205Z,9.50
2022-09-26T05:07:44.176Z,9.50
2022-09-26T05:08:44.168Z,9.53
2022-09-26T05:09:44.153Z,9.56
2022-09-26T05:10:44.167Z,9.50
2022-09-26T05:11:44.132Z,9.50
2022-09-26T05:12:44.122Z,9.51
2022-09-26T05:13:44.112Z,9.58
2022-09-26T05:14:44.103Z,9.68
2022-09-26T05:15:44.113Z,9.57
2022-09-26T05:16:44.116Z,9.61
2022-09-26T05:17:44.075Z,9.58
2022-09-26T05:18:44.063Z,9.60
2022-09-26T05:19:44.073Z,9.64
2022-09-26T05:20:44.036Z,9.60
2022-09-26T05:21:44.045Z,9.64
2022-09-26T05:22:44.031Z,9.57
2022-09-26T05:23:45.254Z,9.68
2022-09-26T05:24:44.019Z,9.75
2022-09-26T05:25:43.983Z,9.69
2022-09-26T05:26:43.979Z,9.78
2022-09-26T05:27:43.958Z,9.87
2022-09-26T05:28:43.949Z,9.74
2022-09-26T05:29:43.936Z,9.91
2022-09-26T05:30:43.945Z,9.87
2022-09-26T05:31:43.937Z,9.94
2022-09-26T05:32:43.902Z,9.91
2022-09-26T05:33:43.889Z,9.91
2022-09-26T05:34:43.880Z,10.05
2022-09-26T05:35:43.894Z,10.07
2022-09-26T05:36:43.862Z,9.99
2022-09-26T05:37:43.844Z,10.05
2022-09-26T05:38:43.971Z,10.01
2022-09-26T05:39:43.955Z,10.08
2022-09-26T05:40:43.885Z,10.04
2022-09-26T05:41:43.804Z,10.05
2022-09-26T05:42:43.791Z,10.14
2022-09-26T05:43:43.781Z,10.15
2022-09-26T05:44:43.808Z,10.23
2022-09-26T05:45:43.781Z,10.11
2022-09-26T05:46:43.822Z,10.15
2022-09-26T05:47:43.736Z,10.22
2022-09-26T05:48:43.750Z,10.23
2022-09-26T05:49:43.712Z,10.20
2022-09-26T05:50:43.861Z,10.18
2022-09-26T05:51:43.691Z,10.15
2022-09-26T05:52:43.708Z,10.18
2022-09-26T05:53:43.667Z,10.27
2022-09-26T05:54:43.676Z,10.27
2022-09-26T05:55:43.645Z,10.30
2022-09-26T05:56:43.721Z,10.20
2022-09-26T05:57:43.625Z,10.26
2022-09-26T05:58:43.619Z,10.17
2022-09-26T05:59:43.606Z,10.26
2022-09-26T06:00:43.680Z,10.25
2022-09-26T06:01:43.696Z,10.25
2022-09-26T06:02:43.679Z,10.36
2022-09-26T06:03:43.578Z,10.27
2022-09-26T06:04:43.547Z,10.38
2022-09-26T06:05:43.540Z,10.36
2022-09-26T06:06:43.524Z,10.41
2022-09-26T06:07:43.550Z,10.48
2022-09-26T06:08:43.531Z,10.51
2022-09-26T06:09:43.615Z,10.48
2022-09-26T06:10:44.580Z,10.45
2022-09-26T06:11:43.468Z,10.36
2022-09-26T06:12:47.577Z,10.52
2022-09-26T06:13:44.480Z,10.52
2022-09-26T06:14:43.437Z,10.51
2022-09-26T06:15:43.430Z,10.52
2022-09-26T06:16:43.508Z,10.53
2022-09-26T06:17:43.441Z,10.53
2022-09-26T06:18:43.417Z,10.51
2022-09-26T06:19:43.378Z,10.59
2022-09-26T06:20:43.374Z,10.59
2022-09-26T06:21:43.386Z,10.45
2022-09-26T06:22:43.350Z,10.48
2022-09-26T06:23:43.337Z,10.53
2022-09-26T06:24:43.324Z,10.51
2022-09-26T06:25:43.314Z,10.59
2022-09-26T06:26:43.340Z,10.45
2022-09-26T06:27:43.288Z,10.59
2022-09-26T06:28:43.280Z,10.59
2022-09-26T06:29:43.270Z,10.66
2022-09-26T06:30:43.257Z,10.59
2022-09-26T06:31:43.358Z,10.59
2022-09-26T06:32:43.233Z,10.70
2022-09-26T06:33:43.231Z,10.61
2022-09-26T06:34:43.210Z,10.67
2022-09-26T06:35:43.291Z,10.74
2022-09-26T06:36:43.213Z,10.71
2022-09-26T06:37:43.180Z,10.79
2022-09-26T06:38:43.168Z,10.84
2022-09-26T06:39:43.156Z,10.86
2022-09-26T06:40:43.250Z,10.84
2022-09-26T06:41:43.153Z,10.91
2022-09-26T06:42:43.244Z,10.96
2022-09-26T06:43:43.113Z,10.96
2022-09-26T06:44:43.102Z,11.11
2022-09-26T06:45:43.091Z,11.18
2022-09-26T06:46:43.122Z,11.14
2022-09-26T06:47:43.087Z,11.18
2022-09-26T06:48:43.090Z,11.32
2022-09-26T06:49:43.047Z,11.29
2022-09-26T06:50:43.066Z,11.33
2022-09-26T06:51:43.025Z,11.40
2022-09-26T06:52:43.012Z,11.36
2022-09-26T06:53:43.002Z,11.42
2022-09-26T06:54:42.987Z,11.43
2022-09-26T06:55:42.976Z,11.35
2022-09-26T06:56:42.989Z,11.52
2022-09-26T06:57:42.957Z,11.51
2022-09-26T06:58:43.042Z,11.51
2022-09-26T06:59:42.934Z,11.52
2022-09-26T07:00:43.134Z,11.54
2022-09-26T07:01:43.065Z,11.52
2022-09-26T07:02:42.918Z,11.54
2022-09-26T07:03:45.686Z,11.43
2022-09-26T07:04:42.878Z,11.44
2022-09-26T07:05:42.895Z,11.51
2022-09-26T07:06:42.876Z,11.55
2022-09-26T07:07:42.852Z,11.51
2022-09-26T07:09:01.579Z,11.49
2022-09-26T07:09:43.821Z,11.57
2022-09-26T07:10:42.814Z,11.58
2022-09-26T07:12:12.416Z,11.62
2022-09-26T07:12:43.805Z,11.60
2022-09-26T07:13:42.776Z,11.64
2022-09-26T07:14:42.784Z,11.67
2022-09-26T07:15:42.798Z,11.72
2022-09-26T07:16:42.777Z,11.82
2022-09-26T07:17:42.731Z,11.80
2022-09-26T07:18:42.723Z,11.82
2022-09-26T07:19:42.711Z,11.86
2022-09-26T07:20:42.720Z,11.79
2022-09-26T07:21:42.714Z,11.79
2022-09-26T07:22:42.675Z,11.98
2022-09-26T07:23:42.670Z,12.04
2022-09-26T07:24:42.653Z,12.12
2022-09-26T07:25:42.663Z,12.09
2022-09-26T07:26:42.638Z,12.12
2022-09-26T07:27:42.621Z,12.14
2022-09-26T07:28:42.640Z,12.20
2022-09-26T07:29:42.603Z,12.13
2022-09-26T07:30:42.716Z,12.28
2022-09-26T07:31:42.657Z,12.23
2022-09-26T07:32:42.566Z,12.21
2022-09-26T07:33:42.581Z,12.35
2022-09-26T07:34:42.542Z,12.37
2022-09-26T07:35:42.536Z,12.39
2022-09-26T07:36:42.540Z,12.38
2022-09-26T07:37:42.531Z,12.39
2022-09-26T07:38:42.498Z,12.46
2022-09-26T07:39:42.489Z,12.42
2022-09-26T07:40:42.558Z,12.54
2022-09-26T07:41:42.466Z,12.52
2022-09-26T07:42:47.786Z,12.62
2022-09-26T07:44:34.730Z,12.57
2022-09-26T07:45:43.446Z,12.77
2022-09-26T07:46:42.484Z,12.89
2022-09-26T07:47:42.399Z,12.97
2022-09-26T07:48:42.409Z,13.04
2022-09-26T07:49:42.378Z,13.03
2022-09-26T07:50:42.366Z,13.00
2022-09-26T07:51:42.354Z,13.00
2022-09-26T07:52:42.341Z,13.11
2022-09-26T07:53:42.336Z,13.17
2022-09-26T07:54:42.562Z,13.19
2022-09-26T07:55:42.333Z,13.11
2022-09-26T07:56:42.295Z,12.96
2022-09-26T07:57:42.285Z,12.92
2022-09-26T07:58:42.280Z,12.87
2022-09-26T07:59:42.265Z,12.75
2022-09-26T08:00:42.271Z,12.79
2022-09-26T08:01:42.312Z,12.85
2022-09-26T08:02:42.364Z,12.85
2022-09-26T08:03:42.240Z,12.78
2022-09-26T08:04:42.207Z,12.95
2022-09-26T08:05:42.199Z,13.00
2022-09-26T08:06:42.190Z,13.00
2022-09-26T08:07:42.349Z,13.15
2022-09-26T08:08:42.184Z,13.11
2022-09-26T08:09:42.158Z,13.14
2022-09-26T08:10:42.140Z,13.03
2022-09-26T08:11:42.146Z,13.11
2022-09-26T08:12:42.117Z,13.11
2022-09-26T08:13:42.208Z,13.23
2022-09-26T08:14:42.097Z,13.22
2022-09-26T08:15:42.207Z,13.29
2022-09-26T08:16:42.071Z,13.49
2022-09-26T08:17:42.069Z,13.54
2022-09-26T08:18:42.068Z,13.75
2022-09-26T08:19:42.047Z,13.71
2022-09-26T08:20:42.050Z,13.87
2022-09-26T08:21:42.042Z,13.96
2022-09-26T08:22:42.008Z,14.00
2022-09-26T08:23:41.995Z,13.87
2022-09-26T08:24:42.011Z,13.89
2022-09-26T08:25:41.972Z,13.77
2022-09-26T08:26:44.653Z,13.75
2022-09-26T08:27:41.953Z,13.63
2022-09-26T08:28:41.936Z,13.59
2022-09-26T08:29:41.928Z,13.55
2022-09-26T08:30:41.937Z,13.55
2022-09-26T08:31:41.995Z,13.52
2022-09-26T08:32:41.914Z,13.49
2022-09-26T08:33:41.885Z,13.52
2022-09-26T08:34:41.888Z,13.63
2022-09-26T08:35:41.905Z,13.69
2022-09-26T08:36:41.846Z,13.70
2022-09-26T08:37:41.862Z,13.96
2022-09-26T08:38:41.824Z,13.91
2022-09-26T08:39:41.834Z,13.92
2022-09-26T08:40:41.928Z,13.85
2022-09-26T08:41:41.797Z,13.85
2022-09-26T08:42:41.779Z,13.71
2022-09-26T08:43:41.793Z,13.55
2022-09-26T08:44:41.762Z,13.60
2022-09-26T08:45:46.649Z,13.51
2022-09-26T08:46:42.838Z,13.45
2022-09-26T08:47:41.727Z,13.36
2022-09-26T08:48:41.729Z,13.29
2022-09-26T08:49:41.728Z,13.20
2022-09-26T08:50:41.717Z,13.25
2022-09-26T08:51:41.794Z,13.04
2022-09-26T08:52:41.669Z,13.33
2022-09-26T08:53:41.659Z,13.59
2022-09-26T08:54:41.647Z,13.54
2022-09-26T08:55:41.640Z,13.67
2022-09-26T08:56:41.650Z,14.00
2022-09-26T08:57:41.818Z,14.02
2022-09-26T08:58:41.604Z,14.14
2022-09-26T08:59:41.596Z,14.43
2022-09-26T09:00:41.578Z,14.61
2022-09-26T09:01:41.763Z,14.92
2022-09-26T09:02:41.619Z,14.98
2022-09-26T09:03:41.568Z,15.17
2022-09-26T09:04:41.548Z,15.20
2022-09-26T09:05:41.553Z,15.16
2022-09-26T09:06:41.529Z,15.31
2022-09-26T09:07:41.509Z,15.54
2022-09-26T09:08:41.491Z,15.69
2022-09-26T09:09:41.482Z,15.67
2022-09-26T09:10:41.499Z,15.67
2022-09-26T09:11:41.463Z,15.50
2022-09-26T09:12:41.445Z,15.75
2022-09-26T09:13:41.454Z,15.54
2022-09-26T09:14:41.425Z,15.14
2022-09-26T09:15:41.474Z,14.95
2022-09-26T09:16:41.424Z,14.77
2022-09-26T09:17:41.391Z,14.62
2022-09-26T09:18:41.379Z,14.69
2022-09-26T09:19:41.371Z,14.70
2022-09-26T09:20:41.355Z,14.60
2022-09-26T09:21:42.118Z,14.47
2022-09-26T09:22:41.355Z,14.37
2022-09-26T09:23:41.324Z,14.46
2022-09-26T09:24:41.313Z,14.29
2022-09-26T09:25:41.306Z,14.20
2022-09-26T09:28:02.466Z,14.32
2022-09-26T09:28:42.267Z,14.68
2022-09-26T09:29:41.258Z,14.77
2022-09-26T09:30:41.251Z,14.95
2022-09-26T09:31:41.286Z,15.17
2022-09-26T09:32:41.248Z,15.43
2022-09-26T09:33:41.217Z,15.71
2022-09-26T09:34:41.202Z,16.00
2022-09-26T09:35:41.196Z,16.27
2022-09-26T09:36:41.178Z,16.35
2022-09-26T09:37:41.193Z,16.50
2022-09-26T09:38:41.182Z,16.63
2022-09-26T09:39:41.148Z,16.70
2022-09-26T09:40:41.236Z,16.79
2022-09-26T09:41:41.134Z,16.46
2022-09-26T09:42:41.136Z,16.20
2022-09-26T09:43:41.102Z,16.23
2022-09-26T09:44:46.246Z,16.30
2022-09-26T09:45:42.080Z,16.21
2022-09-26T09:46:41.149Z,15.96
2022-09-26T09:47:41.057Z,15.89
2022-09-26T09:48:41.237Z,15.86
2022-09-26T09:49:41.036Z,15.82
2022-09-26T09:50:41.023Z,15.86
2022-09-26T09:51:41.024Z,15.90
2022-09-26T09:52:41.020Z,15.71
2022-09-26T09:53:40.991Z,15.97
2022-09-26T09:54:40.999Z,16.09
2022-09-26T09:55:40.970Z,16.24
2022-09-26T09:56:40.956Z,16.53
2022-09-26T09:57:40.971Z,16.61
2022-09-26T09:58:40.944Z,16.79
2022-09-26T09:59:40.925Z,17.01
2022-09-26T10:00:40.911Z,17.06
2022-09-26T10:01:40.903Z,17.25
2022-09-26T10:02:40.984Z,17.33
2022-09-26T10:03:40.881Z,17.30
2022-09-26T10:04:40.877Z,17.28
2022-09-26T10:05:40.950Z,17.38
2022-09-26T10:06:44.201Z,17.40
2022-09-26T10:07:41.835Z,17.30
2022-09-26T10:08:40.852Z,17.23
2022-09-26T10:09:41.094Z,17.41
2022-09-26T10:10:40.823Z,17.37
2022-09-26T10:11:40.793Z,17.51
2022-09-26T10:12:40.810Z,17.66
2022-09-26T10:13:40.772Z,17.62
2022-09-26T10:14:40.759Z,17.64
2022-09-26T10:15:40.940Z,17.48
2022-09-26T10:16:40.738Z,17.62
2022-09-26T10:17:40.727Z,17.52
2022-09-26T10:18:40.733Z,17.41
2022-09-26T10:19:40.703Z,17.37
2022-09-26T10:20:40.693Z,17.48
2022-09-26T10:21:40.697Z,17.48
2022-09-26T10:22:40.691Z,17.43
2022-09-26T10:23:40.659Z,17.25
2022-09-26T10:24:40.650Z,17.22
2022-09-26T10:25:40.637Z,17.16
2022-09-26T10:26:40.642Z,17.11
2022-09-26T10:27:40.642Z,17.15
2022-09-26T10:28:40.602Z,17.23
2022-09-26T10:29:40.593Z,17.28
2022-09-26T10:30:40.581Z,17.25
2022-09-26T10:31:42.842Z,17.14
2022-09-26T10:32:40.562Z,17.03
2022-09-26T10:33:40.549Z,17.03
2022-09-26T10:34:40.558Z,17.01
2022-09-26T10:35:40.526Z,16.98
2022-09-26T10:36:40.514Z,16.83
2022-09-26T10:37:40.529Z,16.83
2022-09-26T10:38:40.489Z,16.97
2022-09-26T10:39:40.488Z,16.91
2022-09-26T10:40:40.511Z,16.89
2022-09-26T10:41:40.460Z,16.96
2022-09-26T10:42:40.605Z,17.03
2022-09-26T10:43:40.438Z,16.82
2022-09-26T10:44:40.427Z,17.00
2022-09-26T10:45:40.477Z,17.11
2022-09-26T10:46:40.500Z,17.25
2022-09-26T10:47:40.417Z,17.51
2022-09-26T10:48:40.382Z,17.66
2022-09-26T10:49:40.374Z,17.77
2022-09-26T10:50:40.358Z,17.90
2022-09-26T10:51:40.367Z,18.10
2022-09-26T10:52:40.362Z,18.21
2022-09-26T10:53:40.331Z,18.25
2022-09-26T10:54:40.322Z,18.07
2022-09-26T10:55:40.325Z,17.79
2022-09-26T10:56:40.313Z,17.84
2022-09-26T10:57:40.287Z,17.96
2022-09-26T10:58:40.306Z,18.12
2022-09-26T10:59:40.266Z,18.03
2022-09-26T11:00:40.268Z,17.89
2022-09-26T11:01:40.291Z,17.64
2022-09-26T11:02:40.231Z,17.41
2022-09-26T11:03:40.361Z,17.22
2022-09-26T11:04:40.211Z,17.21
2022-09-26T11:05:40.192Z,17.26
2022-09-26T11:06:40.207Z,17.44
2022-09-26T11:07:40.170Z,17.26
2022-09-26T11:08:40.165Z,17.30
2022-09-26T11:09:40.150Z,17.22
2022-09-26T11:10:40.138Z,17.16
2022-09-26T11:11:40.152Z,17.08
2022-09-26T11:12:40.121Z,16.97
2022-09-26T11:13:40.107Z,16.93
2022-09-26T11:14:40.115Z,16.64
2022-09-26T11:15:40.351Z,16.64
2022-09-26T11:16:40.134Z,16.48
2022-09-26T11:17:40.084Z,16.45
2022-09-26T11:18:40.053Z,16.43
2022-09-26T11:19:40.039Z,16.33
2022-09-26T11:20:40.031Z,16.25
2022-09-26T11:21:40.017Z,16.15
2022-09-26T11:22:40.030Z,16.21
2022-09-26T11:23:39.994Z,16.14
2022-09-26T11:24:39.986Z,16.21
2022-09-26T11:25:39.993Z,16.45
2022-09-26T11:26:39.987Z,16.43
2022-09-26T11:27:39.952Z,16.58
2022-09-26T11:28:39.941Z,16.61
2022-09-26T11:29:39.937Z,16.75
2022-09-26T11:30:39.935Z,16.85
2022-09-26T11:31:40.072Z,16.93
2022-09-26T11:32:39.899Z,16.94
2022-09-26T11:33:39.910Z,17.04
2022-09-26T11:34:39.877Z,17.19
2022-09-26T11:35:39.885Z,17.28
2022-09-26T11:36:39.853Z,17.28
2022-09-26T11:37:39.872Z,17.40
2022-09-26T11:38:39.858Z,17.23
2022-09-26T11:39:39.818Z,17.06
2022-09-26T11:40:39.918Z,17.00
2022-09-26T11:41:39.793Z,16.97
2022-09-26T11:42:39.786Z,16.97
2022-09-26T11:43:39.797Z,16.91
2022-09-26T11:44:39.764Z,16.88
2022-09-26T11:45:43.927Z,16.76
2022-09-26T11:46:40.890Z,16.82
2022-09-26T11:47:39.727Z,16.85
2022-09-26T11:48:39.725Z,16.91
2022-09-26T11:49:39.727Z,16.93
2022-09-26T11:50:39.712Z,16.94
2022-09-26T11:51:39.686Z,16.86
2022-09-26T11:52:39.677Z,16.76
2022-09-26T11:53:39.667Z,16.67
2022-09-26T11:54:39.671Z,16.75
2022-09-26T11:55:39.649Z,16.73
2022-09-26T11:56:39.660Z,16.75
2022-09-26T11:57:39.616Z,16.71
2022-09-26T11:58:39.609Z,16.64
2022-09-26T11:59:39.630Z,16.57
2022-09-26T12:00:39.588Z,16.52
2022-09-26T12:01:39.588Z,16.50
2022-09-26T12:02:39.689Z,16.35
2022-09-26T12:03:39.681Z,16.35
2022-09-26T12:04:39.540Z,16.38
2022-09-26T12:05:39.551Z,16.49
2022-09-26T12:06:39.518Z,16.60
2022-09-26T12:07:39.525Z,16.79
2022-09-26T12:08:39.520Z,16.82
2022-09-26T12:09:39.484Z,16.93
2022-09-26T12:10:39.495Z,16.79
2022-09-26T12:11:39.462Z,16.86
2022-09-26T12:12:40.691Z,16.88
2022-09-26T12:13:39.443Z,16.86
2022-09-26T12:14:39.433Z,17.00
2022-09-26T12:15:39.511Z,16.94
2022-09-26T12:16:39.409Z,16.94
2022-09-26T12:17:39.395Z,17.12
2022-09-26T12:18:39.407Z,17.18
2022-09-26T12:19:39.371Z,17.12
2022-09-26T12:20:39.361Z,17.18
2022-09-26T12:21:39.372Z,17.16
2022-09-26T12:22:39.342Z,17.07
2022-09-26T12:23:39.327Z,17.00
2022-09-26T12:24:39.322Z,16.97
2022-09-26T12:25:39.325Z,16.97
2022-09-26T12:26:39.297Z,16.98
2022-09-26T12:27:39.286Z,16.97
2022-09-26T12:28:39.273Z,16.79
2022-09-26T12:29:39.262Z,16.64
2022-09-26T12:30:39.278Z,16.64
2022-09-26T12:31:39.383Z,16.50
2022-09-26T12:32:39.236Z,16.42
2022-09-26T12:33:39.219Z,16.28
2022-09-26T12:34:39.226Z,16.27
2022-09-26T12:35:39.215Z,16.14
2022-09-26T12:36:39.184Z,16.12
2022-09-26T12:37:39.174Z,16.17
2022-09-26T12:38:39.162Z,16.17
2022-09-26T12:39:39.153Z,16.17
2022-09-26T12:40:39.219Z,16.21
2022-09-26T12:41:39.149Z,16.09
2022-09-26T12:42:39.118Z,16.01
2022-09-26T12:43:39.104Z,16.00
2022-09-26T12:44:39.097Z,16.00
2022-09-26T12:45:39.112Z,15.86
2022-09-26T12:46:39.158Z,15.82
2022-09-26T12:47:39.061Z,15.86
2022-09-26T12:48:39.050Z,15.87
2022-09-26T12:49:39.040Z,15.90
2022-09-26T12:50:39.074Z,15.83
2022-09-26T12:51:39.018Z,15.62
2022-09-26T12:52:39.006Z,15.65
2022-09-26T12:53:38.991Z,15.62
2022-09-26T12:54:39.007Z,15.67
2022-09-26T12:55:38.969Z,15.68
2022-09-26T12:56:38.981Z,15.56
2022-09-26T12:57:38.948Z,15.59
2022-09-26T12:58:38.940Z,15.46
2022-09-26T12:59:39.075Z,15.51
2022-09-26T13:00:38.945Z,15.50
2022-09-26T13:01:38.986Z,15.44
2022-09-26T13:02:39.000Z,15.49
2022-09-26T13:03:38.881Z,15.51
2022-09-26T13:04:38.897Z,15.44
2022-09-26T13:05:38.861Z,15.60